createdAt,value
2023-08-14T00:00:49.781Z,28.06
2023-08-14T00:03:35.962Z,28.08
2023-08-14T00:06:04.472Z,28.17
2023-08-14T00:08:33.249Z,28.22
2023-08-14T00:11:01.607Z,28.16
2023-08-14T00:13:30.446Z,28.25
2023-08-14T00:15:58.805Z,28.35
2023-08-14T00:18:27.515Z,28.39
2023-08-14T00:20:55.886Z,28.17
2023-08-14T00:23:24.506Z,27.93
2023-08-14T00:25:52.845Z,28.01
2023-08-14T00:28:21.478Z,27.93
2023-08-14T00:30:49.834Z,27.96
2023-08-14T00:33:18.572Z,27.96
2023-08-14T00:35:46.845Z,27.95
2023-08-14T00:38:15.617Z,27.96
2023-08-14T00:40:44.443Z,27.84
2023-08-14T00:43:13.662Z,27.99
2023-08-14T00:45:46.202Z,28.11
2023-08-14T00:48:16.331Z,27.93
2023-08-14T00:50:44.927Z,27.83
2023-08-14T00:53:15.712Z,27.89
2023-08-14T00:55:44.224Z,27.81
2023-08-14T00:58:13.512Z,27.66
2023-08-14T01:00:43.635Z,27.66
2023-08-14T01:03:12.876Z,27.60
2023-08-14T01:05:41.453Z,27.72
2023-08-14T01:08:10.212Z,27.66
2023-08-14T01:10:57.332Z,27.62
2023-08-14T01:13:42.796Z,27.55
2023-08-14T01:16:12.716Z,27.51
2023-08-14T01:18:44.105Z,27.43
2023-08-14T01:21:18.392Z,27.27
2023-08-14T01:24:24.398Z,27.29
2023-08-14T01:26:53.261Z,27.27
2023-08-14T01:29:21.940Z,27.37
2023-08-14T01:31:50.208Z,27.21
2023-08-14T01:34:18.903Z,27.20
2023-08-14T01:37:01.209Z,27.43
2023-08-14T01:39:37.643Z,27.50
2023-08-14T01:42:13.711Z,27.50
2023-08-14T01:44:44.244Z,27.36
2023-08-14T01:47:14.672Z,27.18
2023-08-14T01:49:44.147Z,27.31
2023-08-14T01:52:12.565Z,27.38
2023-08-14T01:54:41.398Z,27.50
2023-08-14T01:57:09.753Z,27.44
2023-08-14T01:59:46.572Z,27.31
2023-08-14T02:02:15.600Z,27.16
2023-08-14T02:04:45.491Z,27.14
2023-08-14T02:07:13.890Z,27.09
2023-08-14T02:09:42.803Z,27.12
2023-08-14T02:12:11.101Z,27.17
2023-08-14T02:14:39.834Z,27.18
2023-08-14T02:17:08.310Z,27.20
2023-08-14T02:19:37.123Z,27.15
2023-08-14T02:22:06.318Z,27.07
2023-08-14T02:24:34.956Z,26.97
2023-08-14T02:27:03.291Z,26.92
2023-08-14T02:29:32.140Z,26.96
2023-08-14T02:32:00.456Z,26.89
2023-08-14T02:34:49.771Z,26.86
2023-08-14T02:37:19.375Z,26.75
2023-08-14T02:39:49.788Z,26.74
2023-08-14T02:42:19.874Z,26.79
2023-08-14T02:44:49.449Z,26.76
2023-08-14T02:47:19.076Z,26.86
2023-08-14T02:49:47.812Z,26.69
2023-08-14T02:52:16.446Z,26.61
2023-08-14T02:54:45.632Z,26.65
2023-08-14T02:57:14.068Z,26.67
2023-08-14T02:59:42.713Z,26.64
2023-08-14T03:02:11.012Z,26.59
2023-08-14T03:04:39.673Z,26.61
2023-08-14T03:07:07.958Z,26.50
2023-08-14T03:09:37.061Z,26.51
2023-08-14T03:12:05.653Z,26.50
2023-08-14T03:14:34.420Z,26.50
2023-08-14T03:17:02.761Z,26.59
2023-08-14T03:19:31.389Z,26.64
2023-08-14T03:21:59.673Z,26.56
2023-08-14T03:24:28.422Z,26.53
2023-08-14T03:26:56.807Z,26.53
2023-08-14T03:29:25.956Z,26.77
2023-08-14T03:31:54.659Z,26.68
2023-08-14T03:34:23.376Z,26.74
2023-08-14T03:36:51.572Z,26.62
2023-08-14T03:39:22.163Z,26.80
2023-08-14T03:41:50.715Z,26.74
2023-08-14T03:44:19.792Z,26.61
2023-08-14T03:46:48.120Z,26.55
2023-08-14T03:49:17.137Z,26.40
2023-08-14T03:51:45.556Z,26.39
2023-08-14T03:54:14.475Z,26.58
2023-08-14T03:56:42.766Z,26.50
2023-08-14T03:59:11.350Z,26.37
2023-08-14T04:01:44.589Z,26.34
2023-08-14T04:04:13.299Z,26.42
2023-08-14T04:06:41.889Z,26.42
2023-08-14T04:09:10.684Z,26.41
2023-08-14T04:11:38.855Z,26.35
2023-08-14T04:14:07.744Z,26.43
2023-08-14T04:16:45.444Z,26.30
2023-08-14T04:19:16.567Z,26.30
2023-08-14T04:21:45.092Z,26.26
2023-08-14T04:24:14.114Z,26.42
2023-08-14T04:26:42.541Z,26.30
2023-08-14T04:29:11.648Z,26.18
2023-08-14T04:31:41.837Z,26.19
2023-08-14T04:34:11.983Z,26.24
2023-08-14T04:36:42.224Z,26.14
2023-08-14T04:39:11.207Z,26.17
2023-08-14T04:41:39.995Z,26.28
2023-08-14T04:44:08.605Z,26.33
2023-08-14T04:46:53.420Z,26.31
2023-08-14T04:49:28.164Z,26.24
2023-08-14T04:51:56.479Z,26.31
2023-08-14T04:54:28.474Z,26.35
2023-08-14T04:56:56.951Z,26.30
2023-08-14T04:59:26.782Z,26.29
2023-08-14T05:01:55.667Z,26.29
2023-08-14T05:04:25.972Z,26.34
2023-08-14T05:06:54.694Z,26.28
2023-08-14T05:09:27.288Z,26.35
2023-08-14T05:12:01.020Z,26.23
2023-08-14T05:14:29.723Z,26.22
2023-08-14T05:16:59.076Z,26.24
2023-08-14T05:19:27.756Z,26.28
2023-08-14T05:21:56.021Z,26.23
2023-08-14T05:24:24.882Z,26.22
2023-08-14T05:26:53.074Z,26.31
2023-08-14T05:29:21.649Z,26.30
2023-08-14T05:31:49.851Z,26.33
2023-08-14T05:34:18.941Z,26.46
2023-08-14T05:36:47.158Z,26.46
2023-08-14T05:39:15.823Z,26.54
2023-08-14T05:41:43.994Z,26.53
2023-08-14T05:44:12.572Z,26.49
2023-08-14T05:46:46.534Z,26.52
2023-08-14T05:49:17.521Z,26.52
2023-08-14T05:51:46.178Z,26.49
2023-08-14T05:54:14.742Z,26.54
2023-08-14T05:56:44.395Z,26.72
2023-08-14T05:59:13.020Z,26.65
2023-08-14T06:01:41.284Z,26.70
2023-08-14T06:04:10.074Z,26.76
2023-08-14T06:06:38.318Z,26.87
2023-08-14T06:09:07.927Z,26.85
2023-08-14T06:11:36.923Z,26.84
2023-08-14T06:14:05.899Z,26.91
2023-08-14T06:16:34.265Z,27.01
2023-08-14T06:19:02.906Z,27.00
2023-08-14T06:21:31.151Z,27.00
2023-08-14T06:23:59.692Z,26.96
2023-08-14T06:26:27.864Z,27.00
2023-08-14T06:28:56.411Z,27.09
2023-08-14T06:31:24.779Z,27.24
2023-08-14T06:33:53.412Z,27.29
2023-08-14T06:36:22.175Z,27.30
2023-08-14T06:38:50.732Z,27.31
2023-08-14T06:41:18.890Z,27.36
2023-08-14T06:43:47.571Z,27.42
2023-08-14T06:46:15.798Z,27.34
2023-08-14T06:48:44.675Z,27.50
2023-08-14T06:51:12.966Z,27.49
2023-08-14T06:53:41.516Z,27.53
2023-08-14T06:56:10.141Z,27.51
2023-08-14T06:58:38.923Z,27.50
2023-08-14T07:01:08.665Z,27.58
2023-08-14T07:03:37.390Z,27.63
2023-08-14T07:06:05.788Z,27.70
2023-08-14T07:08:34.565Z,27.72
2023-08-14T07:11:02.812Z,27.70
2023-08-14T07:13:31.867Z,27.73
2023-08-14T07:16:00.428Z,27.78
2023-08-14T07:18:29.282Z,27.80
2023-08-14T07:20:59.435Z,27.86
2023-08-14T07:23:28.051Z,27.89
2023-08-14T07:25:59.024Z,27.90
2023-08-14T07:28:27.632Z,27.96
2023-08-14T07:30:55.967Z,28.02
2023-08-14T07:33:24.676Z,28.02
2023-08-14T07:35:53.012Z,28.10
2023-08-14T07:38:21.943Z,28.12
2023-08-14T07:40:50.381Z,28.05
2023-08-14T07:43:19.026Z,28.09
2023-08-14T07:45:47.355Z,27.96
2023-08-14T07:48:15.936Z,28.12
2023-08-14T07:50:44.210Z,28.12
2023-08-14T07:53:12.784Z,28.17
2023-08-14T07:55:41.081Z,28.06
2023-08-14T07:58:10.122Z,27.89
2023-08-14T08:00:38.402Z,28.04
2023-08-14T08:03:07.669Z,28.06
2023-08-14T08:05:36.195Z,28.01
2023-08-14T08:08:05.558Z,28.11
2023-08-14T08:10:34.122Z,28.20
2023-08-14T08:13:02.937Z,28.29
2023-08-14T08:15:32.275Z,28.27
2023-08-14T08:18:00.908Z,28.27
2023-08-14T08:20:29.338Z,28.34
2023-08-14T08:22:57.968Z,28.35
2023-08-14T08:25:26.251Z,28.38
2023-08-14T08:27:54.941Z,28.47
2023-08-14T08:30:23.248Z,28.54
2023-08-14T08:32:51.806Z,28.57
2023-08-14T08:35:20.179Z,28.67
2023-08-14T08:37:48.732Z,28.67
2023-08-14T08:40:17.193Z,28.67
2023-08-14T08:42:46.896Z,28.66
2023-08-14T08:45:17.290Z,28.64
2023-08-14T08:47:50.683Z,28.63
2023-08-14T08:50:19.054Z,28.65
2023-08-14T08:52:47.855Z,28.68
2023-08-14T08:55:19.646Z,28.60
2023-08-14T08:57:50.379Z,28.66
2023-08-14T09:00:18.916Z,28.65
2023-08-14T09:02:47.582Z,28.64
2023-08-14T09:05:16.300Z,28.70
2023-08-14T09:07:46.285Z,28.75
2023-08-14T09:10:16.087Z,28.82
2023-08-14T09:12:45.099Z,28.78
2023-08-14T09:15:13.461Z,28.93
2023-08-14T09:17:42.060Z,28.87
2023-08-14T09:20:20.139Z,28.90
2023-08-14T09:23:00.100Z,29.02
2023-08-14T09:25:28.682Z,29.09
2023-08-14T09:27:57.716Z,29.25
2023-08-14T09:30:27.656Z,29.22
2023-08-14T09:32:57.168Z,29.29
2023-08-14T09:35:25.672Z,29.43
2023-08-14T09:37:54.759Z,29.31
2023-08-14T09:40:23.137Z,29.40
2023-08-14T09:42:52.034Z,29.46
2023-08-14T09:45:25.154Z,29.48
2023-08-14T09:47:59.282Z,29.46
2023-08-14T09:50:31.579Z,29.44
2023-08-14T09:53:02.161Z,29.51
2023-08-14T09:55:31.020Z,29.58
2023-08-14T09:58:00.231Z,29.64
2023-08-14T10:00:32.117Z,29.64
2023-08-14T10:03:04.263Z,29.61
2023-08-14T10:05:34.894Z,29.56
2023-08-14T10:08:03.823Z,29.75
2023-08-14T10:10:33.130Z,29.84
2023-08-14T10:13:06.477Z,29.76
2023-08-14T10:15:39.106Z,29.75
2023-08-14T10:18:17.970Z,29.71
2023-08-14T10:20:49.239Z,29.68
2023-08-14T10:23:18.499Z,29.77
2023-08-14T10:25:52.081Z,29.89
2023-08-14T10:28:21.587Z,29.98
2023-08-14T10:30:50.153Z,29.90
2023-08-14T10:33:20.581Z,29.90
2023-08-14T10:35:55.405Z,29.95
2023-08-14T10:38:43.723Z,29.90
2023-08-14T10:41:12.036Z,29.83
2023-08-14T10:43:41.499Z,29.88
2023-08-14T10:46:13.428Z,30.01
2023-08-14T10:48:43.888Z,30.10
2023-08-14T10:51:17.772Z,30.09
2023-08-14T10:53:46.455Z,30.03
2023-08-14T10:56:15.167Z,29.95
2023-08-14T10:58:51.662Z,29.97
2023-08-14T11:01:19.994Z,30.00
2023-08-14T11:03:59.777Z,30.13
2023-08-14T11:06:30.318Z,30.03
2023-08-14T11:09:01.024Z,30.05
2023-08-14T11:11:29.496Z,30.02
2023-08-14T11:13:58.322Z,30.15
2023-08-14T11:16:27.119Z,30.20
2023-08-14T11:18:58.834Z,30.21
2023-08-14T11:21:32.063Z,30.20
2023-08-14T11:24:01.571Z,30.22
2023-08-14T11:26:31.663Z,30.26
2023-08-14T11:29:00.303Z,30.26
2023-08-14T11:31:34.349Z,30.44
2023-08-14T11:34:04.086Z,30.55
2023-08-14T11:36:35.177Z,30.48
2023-08-14T11:39:05.429Z,30.55
2023-08-14T11:41:36.882Z,30.50
2023-08-14T11:44:05.660Z,30.35
2023-08-14T11:46:34.083Z,30.38
2023-08-14T11:49:02.715Z,30.52
2023-08-14T11:51:30.933Z,30.46
2023-08-14T11:54:03.230Z,30.44
2023-08-14T11:56:31.463Z,30.70
2023-08-14T11:59:07.209Z,30.63
2023-08-14T12:01:38.510Z,30.54
2023-08-14T12:04:08.661Z,30.57
2023-08-14T12:06:37.142Z,30.70
2023-08-14T12:09:11.237Z,30.67
2023-08-14T12:11:40.021Z,30.75
2023-08-14T12:14:09.175Z,30.80
2023-08-14T12:16:41.282Z,30.70
2023-08-14T12:19:11.181Z,30.60
2023-08-14T12:21:39.891Z,30.74
2023-08-14T12:24:08.597Z,30.81
2023-08-14T12:26:42.229Z,30.78
2023-08-14T12:29:11.364Z,30.80
2023-08-14T12:31:39.883Z,30.75
2023-08-14T12:34:08.584Z,30.84
2023-08-14T12:36:37.171Z,30.83
2023-08-14T12:39:05.985Z,30.92
2023-08-14T12:41:34.331Z,30.73
2023-08-14T12:44:03.155Z,30.82
2023-08-14T12:46:31.478Z,30.90
2023-08-14T12:49:00.112Z,30.96
2023-08-14T12:51:28.375Z,30.84
2023-08-14T12:53:57.006Z,30.76
2023-08-14T12:56:25.352Z,30.82
2023-08-14T12:58:56.003Z,31.02
2023-08-14T13:01:25.185Z,30.92
2023-08-14T13:03:55.275Z,30.90
2023-08-14T13:06:25.252Z,31.05
2023-08-14T13:08:53.946Z,31.04
2023-08-14T13:11:22.346Z,30.96
2023-08-14T13:13:51.341Z,31.07
2023-08-14T13:16:20.003Z,30.93
2023-08-14T13:18:48.737Z,30.99
2023-08-14T13:21:17.026Z,30.95
2023-08-14T13:23:45.884Z,30.92
2023-08-14T13:26:26.569Z,31.14
2023-08-14T13:28:56.616Z,31.13
2023-08-14T13:31:25.086Z,31.11
2023-08-14T13:33:53.714Z,30.97
2023-08-14T13:36:22.032Z,30.97
2023-08-14T13:38:50.662Z,31.16
2023-08-14T13:41:19.008Z,31.11
2023-08-14T13:43:48.091Z,31.11
2023-08-14T13:46:16.407Z,31.20
2023-08-14T13:48:45.645Z,31.27
2023-08-14T13:51:15.207Z,31.25
2023-08-14T13:53:44.156Z,31.21
2023-08-14T13:56:12.422Z,31.28
2023-08-14T13:58:40.971Z,31.18
2023-08-14T14:01:09.337Z,31.20
2023-08-14T14:03:40.184Z,31.17
2023-08-14T14:06:11.105Z,31.38
2023-08-14T14:08:39.755Z,31.46
2023-08-14T14:11:07.985Z,31.49
2023-08-14T14:13:36.744Z,31.31
2023-08-14T14:16:05.298Z,31.53
2023-08-14T14:18:33.960Z,31.53
2023-08-14T14:21:02.215Z,31.39
2023-08-14T14:23:30.884Z,31.47
2023-08-14T14:25:59.113Z,31.32
2023-08-14T14:28:30.236Z,31.45
2023-08-14T14:30:59.007Z,31.48
2023-08-14T14:33:27.670Z,31.53
2023-08-14T14:35:56.029Z,31.63
2023-08-14T14:38:24.693Z,31.58
2023-08-14T14:40:52.863Z,31.46
2023-08-14T14:43:21.404Z,31.46
2023-08-14T14:45:49.693Z,31.50
2023-08-14T14:48:18.257Z,31.49
2023-08-14T14:50:56.022Z,31.41
2023-08-14T14:53:24.532Z,31.50
2023-08-14T14:55:52.724Z,31.47
2023-08-14T14:58:40.864Z,31.67
2023-08-14T15:01:09.373Z,31.56
2023-08-14T15:03:38.325Z,31.59
2023-08-14T15:06:06.875Z,31.59
2023-08-14T15:08:35.416Z,31.47
2023-08-14T15:11:03.711Z,31.50
2023-08-14T15:13:32.285Z,31.62
2023-08-14T15:16:01.010Z,31.53
2023-08-14T15:18:30.198Z,31.56
2023-08-14T15:20:58.363Z,31.50
2023-08-14T15:23:26.970Z,31.56
2023-08-14T15:25:55.255Z,31.46
2023-08-14T15:28:23.964Z,31.48
2023-08-14T15:30:52.109Z,31.55
2023-08-14T15:33:22.000Z,31.59
2023-08-14T15:35:50.197Z,31.54
2023-08-14T15:38:18.707Z,31.47
2023-08-14T15:40:48.237Z,31.62
2023-08-14T15:43:17.075Z,31.57
2023-08-14T15:45:45.330Z,31.62
2023-08-14T15:48:14.016Z,31.53
2023-08-14T15:50:43.670Z,31.48
2023-08-14T15:53:12.167Z,31.53
2023-08-14T15:55:40.570Z,31.59
2023-08-14T15:58:08.999Z,31.62
2023-08-14T16:00:37.209Z,31.63
2023-08-14T16:03:07.781Z,31.53
2023-08-14T16:05:36.249Z,31.48
2023-08-14T16:08:05.207Z,31.46
2023-08-14T16:10:33.753Z,31.44
2023-08-14T16:13:02.331Z,31.42
2023-08-14T16:15:30.562Z,31.41
2023-08-14T16:17:59.080Z,31.46
2023-08-14T16:20:27.271Z,31.45
2023-08-14T16:22:55.914Z,31.38
2023-08-14T16:25:24.200Z,31.35
2023-08-14T16:27:52.729Z,31.39
2023-08-14T16:30:20.920Z,31.34
2023-08-14T16:32:49.575Z,31.36
2023-08-14T16:35:17.794Z,31.30
2023-08-14T16:37:46.348Z,31.30
2023-08-14T16:40:14.626Z,31.26
2023-08-14T16:42:43.137Z,31.21
2023-08-14T16:45:13.581Z,31.20
2023-08-14T16:47:43.059Z,31.19
2023-08-14T16:50:11.926Z,31.16
2023-08-14T16:52:40.423Z,31.18
2023-08-14T16:55:09.005Z,31.13
2023-08-14T16:57:37.861Z,31.20
2023-08-14T17:00:07.076Z,31.17
2023-08-14T17:02:37.793Z,31.14
2023-08-14T17:05:08.731Z,31.13
2023-08-14T17:07:37.415Z,31.12
2023-08-14T17:10:05.682Z,31.14
2023-08-14T17:12:34.234Z,31.11
2023-08-14T17:15:02.413Z,31.13
2023-08-14T17:17:32.698Z,31.14
2023-08-14T17:20:01.032Z,31.09
2023-08-14T17:22:29.659Z,31.09
2023-08-14T17:24:57.907Z,31.14
2023-08-14T17:27:45.279Z,31.11
2023-08-14T17:30:13.931Z,31.01
2023-08-14T17:32:42.534Z,30.97
2023-08-14T17:35:10.908Z,31.01
2023-08-14T17:37:39.469Z,31.02
2023-08-14T17:40:08.421Z,31.07
2023-08-14T17:42:36.936Z,31.06
2023-08-14T17:45:05.548Z,31.02
2023-08-14T17:47:35.466Z,31.03
2023-08-14T17:50:03.907Z,30.98
2023-08-14T17:52:33.748Z,30.97
2023-08-14T17:55:02.420Z,30.91
2023-08-14T17:57:31.332Z,30.91
2023-08-14T17:59:59.499Z,30.88
2023-08-14T18:02:28.229Z,30.90
2023-08-14T18:04:56.506Z,30.85
2023-08-14T18:07:25.188Z,30.88
2023-08-14T18:09:56.012Z,30.87
2023-08-14T18:12:24.880Z,30.87
2023-08-14T18:14:53.134Z,30.84
2023-08-14T18:17:22.007Z,30.81
2023-08-14T18:19:50.438Z,30.85
2023-08-14T18:22:19.236Z,30.86
2023-08-14T18:24:48.829Z,30.84
2023-08-14T18:27:17.722Z,30.86
2023-08-14T18:29:47.331Z,30.83
2023-08-14T18:32:15.934Z,30.82
2023-08-14T18:34:44.468Z,30.83
2023-08-14T18:37:13.009Z,30.83
2023-08-14T18:39:41.232Z,30.83
2023-08-14T18:42:09.750Z,30.84
2023-08-14T18:44:37.940Z,30.83
2023-08-14T18:47:06.939Z,30.83
2023-08-14T18:49:35.291Z,30.83
2023-08-14T18:52:03.926Z,30.82
2023-08-14T18:54:32.192Z,30.81
2023-08-14T18:57:00.660Z,30.80
2023-08-14T18:59:30.467Z,30.78
2023-08-14T19:01:59.110Z,30.77
2023-08-14T19:04:40.643Z,30.76
2023-08-14T19:07:10.842Z,30.78
2023-08-14T19:09:39.236Z,30.75
2023-08-14T19:12:08.588Z,30.73
2023-08-14T19:14:37.382Z,30.74
2023-08-14T19:17:06.080Z,30.76
2023-08-14T19:19:34.404Z,30.71
2023-08-14T19:22:03.042Z,30.69
2023-08-14T19:24:31.266Z,30.72
2023-08-14T19:26:59.775Z,30.64
2023-08-14T19:29:27.992Z,30.63
2023-08-14T19:31:56.515Z,30.54
2023-08-14T19:34:24.663Z,30.60
2023-08-14T19:36:53.299Z,30.57
2023-08-14T19:39:21.492Z,30.55
2023-08-14T19:41:51.032Z,30.59
2023-08-14T19:44:19.262Z,30.59
2023-08-14T19:46:48.040Z,30.62
2023-08-14T19:49:16.212Z,30.62
2023-08-14T19:51:44.641Z,30.63
2023-08-14T19:54:12.849Z,30.62
2023-08-14T19:56:41.354Z,30.64
2023-08-14T19:59:09.764Z,30.63
2023-08-14T20:01:38.353Z,30.63
2023-08-14T20:04:07.145Z,30.56
2023-08-14T20:06:35.871Z,30.58
2023-08-14T20:09:04.410Z,30.57
2023-08-14T20:11:32.942Z,30.56
2023-08-14T20:14:01.052Z,30.53
2023-08-14T20:16:29.516Z,30.53
2023-08-14T20:18:57.866Z,30.51
2023-08-14T20:21:26.479Z,30.47
2023-08-14T20:23:54.628Z,30.50
2023-08-14T20:26:24.476Z,30.44
2023-08-14T20:28:52.608Z,30.37
2023-08-14T20:31:21.997Z,30.37
2023-08-14T20:33:50.924Z,30.36
2023-08-14T20:36:23.025Z,30.31
2023-08-14T20:38:51.236Z,30.23
2023-08-14T20:41:20.027Z,30.28
2023-08-14T20:43:48.220Z,30.30
2023-08-14T20:46:17.151Z,30.26
2023-08-14T20:48:45.355Z,30.25
2023-08-14T20:51:13.855Z,30.26
2023-08-14T20:53:42.047Z,30.27
2023-08-14T20:56:10.507Z,30.28
2023-08-14T20:58:38.720Z,30.24
2023-08-14T21:01:07.197Z,30.20
2023-08-14T21:03:35.446Z,30.18
2023-08-14T21:06:04.199Z,30.07
2023-08-14T21:08:32.431Z,30.17
2023-08-14T21:11:01.026Z,30.20
2023-08-14T21:13:30.593Z,30.17
2023-08-14T21:15:59.910Z,30.17
2023-08-14T21:18:28.211Z,30.20
2023-08-14T21:20:56.673Z,30.18
2023-08-14T21:23:25.765Z,30.16
2023-08-14T21:25:54.242Z,30.13
2023-08-14T21:28:22.618Z,30.17
2023-08-14T21:31:00.893Z,30.17
2023-08-14T21:33:29.207Z,30.16
2023-08-14T21:36:00.074Z,30.13
2023-08-14T21:38:28.347Z,30.04
2023-08-14T21:40:56.944Z,30.06
2023-08-14T21:43:26.008Z,29.99
2023-08-14T21:45:54.483Z,30.03
2023-08-14T21:48:22.630Z,30.03
2023-08-14T21:50:51.150Z,29.98
2023-08-14T21:53:20.132Z,30.00
2023-08-14T21:55:48.638Z,30.01
2023-08-14T21:58:18.098Z,29.95
2023-08-14T22:00:47.193Z,29.91
2023-08-14T22:03:15.633Z,29.95
2023-08-14T22:05:44.460Z,29.99
2023-08-14T22:08:15.358Z,29.84
2023-08-14T22:10:44.095Z,29.92
2023-08-14T22:13:12.489Z,29.83
2023-08-14T22:15:46.349Z,29.84
2023-08-14T22:18:16.132Z,29.88
2023-08-14T22:20:45.029Z,29.85
2023-08-14T22:23:15.141Z,29.82
2023-08-14T22:25:44.644Z,29.85
2023-08-14T22:28:12.924Z,29.88
2023-08-14T22:30:44.074Z,29.90
2023-08-14T22:33:13.827Z,29.85
2023-08-14T22:35:42.356Z,29.79
2023-08-14T22:38:10.528Z,29.84
2023-08-14T22:40:39.076Z,29.90
2023-08-14T22:43:07.181Z,29.81
2023-08-14T22:48:08.852Z,29.81
2023-08-14T22:50:37.751Z,29.77
2023-08-14T22:53:05.939Z,29.75
2023-08-14T22:55:34.448Z,29.76
2023-08-14T22:58:03.184Z,29.74
2023-08-14T23:00:33.710Z,29.73
2023-08-14T23:03:02.088Z,29.77
2023-08-14T23:05:30.848Z,29.79
2023-08-14T23:07:58.988Z,29.75
2023-08-14T23:10:27.453Z,29.77
2023-08-14T23:12:55.635Z,29.75
2023-08-14T23:15:24.212Z,29.60
2023-08-14T23:17:52.597Z,29.46
2023-08-14T23:20:21.286Z,29.47
2023-08-14T23:22:49.475Z,29.36
2023-08-14T23:25:19.084Z,29.29
2023-08-14T23:27:47.337Z,29.42
2023-08-14T23:30:16.080Z,29.50
2023-08-14T23:32:44.302Z,29.49
2023-08-14T23:35:13.127Z,29.60
2023-08-14T23:37:41.305Z,29.59
2023-08-14T23:40:10.586Z,29.62
2023-08-14T23:42:39.766Z,29.59
2023-08-14T23:45:08.489Z,29.48
2023-08-14T23:47:36.789Z,29.54
2023-08-14T23:50:05.698Z,29.48
2023-08-14T23:52:34.015Z,29.53
2023-08-14T23:55:02.531Z,29.54
2023-08-14T23:57:30.717Z,29.55
2023-08-14T23:59:59.267Z,29.53
